Pagina principală
METAR-TAF:

METAR-TAF

Aeroporturi :

Foz do Iguaçu, Paraná, Brazilia

Latitudine: 25-31S, longitudine: 054-35W, elevație: 180 m

Observații meteo curente

Raportul a fost făcut în urmă cu 1 oră și 0 de minute, la 09:00 UTC
Vânt 4 kt de la Sud
Temperatură 13°C
Umiditate 94%
Presiune 1020 hPa
Vizibilitate de 10 km sau mai mult
nu există nori sub 1.500 m și nici cumulonimbus

METAR: SBFI 180900Z 18004KT CAVOK 13/12 Q1020

Ora: 07:00 (10:00 UTC)

Prognoză

Raportul a fost făcut în urmă cu 7 ore și 0 de minute, la 03:00 UTC
Prognoză valabilă de la 18 ora 06 UTC la 19 ora 06 UTC
Vânt 5 kt de la Est/Sud-est
Vizibilitate de 10 km sau mai mult
nu există nori sub 1.500 m și nici cumulonimbus

TAF: SBFI 180300Z 1806/1906 11005KT CAVOK TX27/1817Z TN14/1905Z RMK PEW

Observații și prognoze meteo pentru peste 4.000 de aeroporturi (rapoarte METAR și TAF).

Stațiile disponibile sunt reprezentate pe hartă prin puncte galbene și roșii.

Țineți indicatorul mouse-ului pe punctul dorit pentru a vedea denumirea stației.

Apoi, faceți clic pentru a vedea observațiile și prognozele meteorologice.

Pentru a schimba harta: Pentru mărire, faceți clic pe butoanele verzi cu cruce neagră; pentru micșorare, pe butonul verde cu o liniuță; pentru hărți învecinate, pe săgețile verzi.


METAR-TAF: